CDT,Max TemperatureF,Mean TemperatureF,Min TemperatureF,Max Dew PointF,MeanDew PointF,Min DewpointF,Max Humidity, Mean Humidity, Min Humidity, Max Sea Level PressureIn, Mean Sea Level PressureIn, Min Sea Level PressureIn, Max VisibilityMiles, Mean VisibilityMiles, Min VisibilityMiles, Max Wind SpeedMPH, Mean Wind SpeedMPH, Max Gust SpeedMPH,PrecipitationIn, CloudCover, Events, WindDirDegrees
2013-10-1,87,68,48,62,56,48,97,67,37,29.93,29.88,29.81,10,10,6,14,3,16,0.00,0,,196
2013-10-2,86,72,58,70,63,57,100,76,51,29.97,29.92,29.81,10,6,2,17,6,23,0.00,2,,170
2013-10-3,86,74,62,72,67,61,93,76,59,29.86,29.77,29.64,10,8,1,25,12,36,0.97,5,Rain-Thunderstorm,121
2013-10-4,89,70,50,72,64,37,87,68,48,29.97,29.73,29.62,10,8,0,39,14,63,0.90,4,Fog-Rain-Thunderstorm,208
2013-10-5,62,53,44,40,35,33,70,53,36,30.06,30.00,29.94,10,10,10,20,9,28,0.02,5,Rain,269
2013-10-6,67,54,41,43,38,31,76,54,32,30.06,29.98,29.92,10,10,10,18,8,29,0.00,4,,288
2013-10-7,75,56,37,44,41,35,92,60,27,30.18,30.10,30.04,10,10,10,13,4,16,0.00,0,,222
2013-10-8,78,59,40,48,45,41,100,65,30,30.06,30.00,29.94,10,10,10,22,10,32,0.00,0,,177
2013-10-9,80,67,54,56,51,46,84,62,39,30.01,29.97,29.93,10,10,10,18,8,24,0.00,0,,170
2013-10-10,81,69,57,59,57,54,86,66,45,29.98,29.90,29.78,10,10,10,22,11,29,0.00,0,,176
2013-10-11,81,68,55,63,54,42,90,62,33,29.91,29.74,29.68,10,10,10,24,9,31,0.01,2,Rain,213
2013-10-12,70,56,41,46,41,36,100,64,28,30.28,30.14,29.93,10,10,10,13,2,17,0.00,0,,10
2013-10-13,72,55,37,42,39,35,100,64,27,30.40,30.32,30.25,10,10,10,22,7,30,0.00,1,,96
2013-10-14,66,62,57,63,55,40,100,73,46,30.23,29.96,29.78,10,9,1,26,13,35,0.34,8,Rain-Thunderstorm,167
2013-10-15,60,52,43,57,41,35,96,72,47,30.16,30.04,29.89,10,10,10,15,7,24,0.00,3,,303
2013-10-16,59,51,42,42,37,34,89,65,40,30.16,30.09,30.01,10,10,10,10,5,16,0.00,3,,267
2013-10-17,66,51,35,43,39,32,100,64,28,30.09,30.00,29.94,10,10,9,14,5,20,0.00,0,,282
2013-10-18,41,37,33,38,35,34,100,90,79,30.22,30.16,30.10,10,7,1,13,6,16,0.39,7,Rain-Snow,255
2013-10-19,66,49,31,41,37,31,100,69,37,30.12,30.00,29.88,10,10,8,16,6,22,0.00,0,,232
2013-10-20,69,53,36,46,40,37,100,68,36,30.00,29.86,29.81,10,10,10,16,4,21,0.00,0,,265
2013-10-21,60,49,37,40,37,31,100,70,39,30.17,30.08,30.00,10,10,10,13,4,18,0.00,1,,325
2013-10-22,64,51,38,44,40,37,100,71,42,30.15,30.02,29.96,10,10,10,15,6,24,0.00,2,,312
2013-10-23,63,48,33,46,39,33,100,73,46,30.21,30.13,30.02,10,10,10,12,5,16,0.00,2,,18
2013-10-24,51,40,29,39,31,24,100,68,36,30.47,30.38,30.22,10,10,10,12,4,16,0.00,4,,27
2013-10-25,60,43,26,37,29,25,100,64,27,30.48,30.34,30.14,10,9,6,21,6,25,0.00,1,,202
2013-10-26,61,45,28,42,34,28,100,65,29,30.22,30.17,30.09,10,10,9,15,4,28,0.00,0,,352
2013-10-27,71,48,25,35,30,25,100,62,23,30.19,30.03,29.91,10,10,10,17,6,24,0.00,0,,209
2013-10-28,65,50,34,54,48,33,100,84,67,30.13,30.06,29.96,10,10,9,14,5,18,T,5,Rain,125
2013-10-29,64,59,53,63,57,53,100,94,87,30.04,29.97,29.88,10,6,2,21,8,25,0.09,8,Rain-Thunderstorm,73
2013-10-30,59,55,50,59,55,50,100,97,93,29.96,29.85,29.76,10,6,1,14,2,14,0.90,8,Rain-Thunderstorm,321
2013-10-31,64,52,40,50,45,38,100,72,43,29.76,29.67,29.58,10,9,4,15,5,23,0.12,5,Rain,322